ZHM weather

Shamshernagar Airport
Shamshernagar, Sylhet Division, Bangladesh

Public forecast

Using degrees Celsius for public forecast. Weather courtesy of forecast.io.

METAR (pilot weather report)

Closest report is Agartala Airport, 47.5 nm (87.9 km) SW. Retrieved 2019/08/26 05:30 UTC (28 minutes ago):

VEAT 260530Z 16003KT 6000 SCT020 BKN100 34/26 Q1004 NOSIG

TAF (pilot weather forecast)

Forecast is more than 12 hours old.

Closest forecast is Agartala Airport, 47.5 nm (87.9 km) SW. Retrieved 2013/07/19 12:00 UTC (6 years ago):

TAF VEAT 190900Z 1912/1921 16008KT 5000 HZ SCT018 FEW030CB BKN100 TEMPO 1912/1921 3000 -TSRA SCT015 FEW025CB OVC090